Time;durP1;ratioP1;P1;durP2;ratioP2;P2;SDS_P1;SDS_P2;PMS_P1;PMS_P2;Temp;Humidity;BMP_temperature;BMP_pressure;BME280_temperature;BME280_humidity;BME280_pressure;Samples;Min_cycle;Max_cycle;Signal;HPM_P1;HPM_P2
2022/03/04 00:01:50;;;;;;;21.70;14.63;;;;;;;6.58;37.94;97482.66;5036093;28;20426;-70
2022/03/04 00:04:15;;;;;;;26.57;14.27;;;;;;;6.52;37.81;97488.34;5015564;28;20195;-72
2022/03/04 00:06:41;;;;;;;26.10;13.80;;;;;;;6.46;37.54;97494.03;5034565;28;20176;-73
2022/03/04 00:09:06;;;;;;;21.70;13.50;;;;;;;6.42;37.94;97490.84;5033937;28;20624;-70
2022/03/04 00:11:32;;;;;;;24.30;14.77;;;;;;;6.40;37.80;97486.72;5034381;28;20182;-70
2022/03/04 00:13:58;;;;;;;24.27;14.40;;;;;;;6.43;37.96;97487.28;5034266;28;20730;-72
2022/03/04 00:16:24;;;;;;;21.23;14.00;;;;;;;6.48;37.56;97486.13;5033397;28;20238;-71
2022/03/04 00:19:06;;;;;;;23.53;13.37;;;;;;;6.53;37.52;97487.41;5034650;28;20260;-72
2022/03/04 00:21:41;;;;;;;21.60;14.07;;;;;;;6.45;37.94;97482.78;5033089;28;20440;-71
2022/03/04 00:24:07;;;;;;;20.33;13.10;;;;;;;6.43;37.77;97484.69;5034380;28;20441;-71
2022/03/04 00:26:33;;;;;;;23.43;12.87;;;;;;;6.45;37.86;97489.75;5025727;28;20417;-71
2022/03/04 00:28:58;;;;;;;20.37;13.60;;;;;;;6.45;37.49;97482.78;5033645;28;20443;-71
2022/03/04 00:31:24;;;;;;;18.17;12.67;;;;;;;6.37;37.99;97487.75;5033210;28;20273;-71
2022/03/04 00:33:50;;;;;;;19.83;12.30;;;;;;;6.39;37.58;97487.66;5033491;28;20648;-70
2022/03/04 00:36:16;;;;;;;19.57;13.10;;;;;;;6.33;37.58;97488.97;5014844;28;20642;-70
2022/03/04 00:38:41;;;;;;;22.33;14.37;;;;;;;6.32;37.86;97492.50;5033894;28;20433;-70
2022/03/04 00:41:07;;;;;;;19.27;12.40;;;;;;;6.32;38.05;97495.09;5034028;28;20300;-69
2022/03/04 00:43:32;;;;;;;23.80;13.87;;;;;;;6.26;37.81;97499.00;5033549;28;20194;-71
2022/03/04 00:45:58;;;;;;;19.37;13.10;;;;;;;6.14;38.03;97498.16;5033648;28;20752;-70
2022/03/04 00:48:23;;;;;;;26.40;13.27;;;;;;;6.18;38.18;97498.75;5033277;28;20207;-69
2022/03/04 00:50:48;;;;;;;22.27;13.70;;;;;;;6.15;37.98;97494.63;5033741;28;20291;-71
2022/03/04 00:53:14;;;;;;;22.63;14.20;;;;;;;6.10;37.61;97496.75;5034812;28;20191;-72
2022/03/04 00:55:39;;;;;;;24.50;14.50;;;;;;;6.10;37.82;97498.53;5033537;28;20257;-70
2022/03/04 00:58:08;;;;;;;19.83;12.90;;;;;;;6.11;38.10;97501.00;5033481;28;20283;-70
2022/03/04 01:00:35;;;;;;;23.70;13.27;;;;;;;6.19;37.93;97499.59;5008192;28;20202;-70
2022/03/04 01:03:03;;;;;;;22.37;13.37;;;;;;;6.13;38.15;97498.28;5033710;28;20516;-70
2022/03/04 01:05:29;;;;;;;19.77;12.90;;;;;;;6.09;38.36;97496.84;5032863;28;20431;-70
2022/03/04 01:07:55;;;;;;;17.97;12.50;;;;;;;6.07;38.36;97498.75;5015366;28;20425;-70
2022/03/04 01:10:20;;;;;;;22.73;13.77;;;;;;;6.03;38.29;97498.16;5031871;28;20299;-70
2022/03/04 01:12:46;;;;;;;20.87;13.10;;;;;;;5.96;38.76;97497.75;5032525;28;20564;-70
2022/03/04 01:15:12;;;;;;;21.37;13.57;;;;;;;5.99;38.29;97497.56;5032488;28;20197;-70
2022/03/04 01:17:37;;;;;;;19.90;13.50;;;;;;;5.90;38.11;97497.38;5032921;28;20221;-71
2022/03/04 01:20:03;;;;;;;22.57;13.90;;;;;;;5.87;38.63;97493.25;5032414;28;20449;-68
2022/03/04 01:22:30;;;;;;;24.97;13.70;;;;;;;5.85;38.18;97492.53;5032104;28;20196;-69
2022/03/04 01:24:55;;;;;;;21.37;13.63;;;;;;;5.78;38.99;97494.78;5026774;28;20422;-70
2022/03/04 01:27:20;;;;;;;20.53;14.00;;;;;;;5.81;39.11;97499.75;5032244;28;20810;-70
2022/03/04 01:29:46;;;;;;;20.80;12.90;;;;;;;5.77;39.14;97503.50;5032225;28;20215;-70
2022/03/04 01:32:11;;;;;;;19.87;13.73;;;;;;;5.59;38.94;97484.91;5032412;28;20177;-69
2022/03/04 01:34:37;;;;;;;19.60;13.67;;;;;;;5.64;39.58;97490.63;5031808;28;20215;-69
2022/03/04 01:37:03;;;;;;;23.50;14.27;;;;;;;5.58;39.69;97498.84;5032286;28;20208;-70
2022/03/04 01:39:29;;;;;;;19.70;13.13;;;;;;;5.54;39.74;97481.84;5014156;28;20203;-69
2022/03/04 01:41:54;;;;;;;24.87;14.83;;;;;;;5.50;39.48;97485.59;5031712;28;20524;-70
2022/03/04 01:44:20;;;;;;;21.07;13.60;;;;;;;5.53;39.76;97480.19;5031060;28;20197;-71
2022/03/04 01:46:45;;;;;;;22.90;14.10;;;;;;;5.54;39.34;97481.84;5030823;28;20224;-70
2022/03/04 01:49:11;;;;;;;25.80;13.57;;;;;;;5.48;39.59;97479.69;5031024;28;20215;-70
2022/03/04 01:51:36;;;;;;;22.40;13.50;;;;;;;5.48;39.85;97477.09;5031298;28;20177;-70
2022/03/04 01:54:02;;;;;;;22.60;14.93;;;;;;;5.48;39.21;97477.91;5031069;28;20210;-70
2022/03/04 01:56:28;;;;;;;19.80;14.03;;;;;;;5.50;39.95;97477.81;5030330;28;20242;-72
2022/03/04 01:58:53;;;;;;;22.00;14.30;;;;;;;5.53;39.97;97475.81;5015878;28;20465;-71
2022/03/04 02:01:19;;;;;;;20.40;13.83;;;;;;;5.53;39.60;97483.59;5030068;28;20185;-71
2022/03/04 02:03:45;;;;;;;20.73;13.27;;;;;;;5.46;39.60;97478.97;5030583;28;20178;-71
2022/03/04 02:06:10;;;;;;;21.77;13.97;;;;;;;5.37;40.09;97483.91;5030133;28;20213;-71
2022/03/04 02:08:36;;;;;;;20.83;13.83;;;;;;;5.37;40.50;97476.09;5013395;28;20190;-72
2022/03/04 02:11:01;;;;;;;19.67;13.40;;;;;;;5.35;40.32;97480.59;5030807;28;20194;-69
2022/03/04 02:13:27;;;;;;;20.67;14.10;;;;;;;5.27;40.20;97476.88;5030688;28;20195;-69
2022/03/04 02:15:52;;;;;;;21.30;13.60;;;;;;;5.28;39.99;97476.78;5032444;28;20237;-68
2022/03/04 02:18:18;;;;;;;22.27;14.20;;;;;;;5.28;39.85;97471.59;5031782;28;20208;-69
2022/03/04 02:20:48;;;;;;;21.83;13.03;;;;;;;5.32;39.90;97465.22;5032179;28;20207;-70
2022/03/04 02:23:14;;;;;;;24.30;15.37;;;;;;;5.32;39.89;97470.41;5037286;28;20286;-70
2022/03/04 02:25:41;;;;;;;20.10;13.67;;;;;;;5.28;40.21;97470.75;5030222;28;20423;-70
2022/03/04 02:28:07;;;;;;;25.70;14.10;;;;;;;5.30;40.21;97463.69;5031589;28;20510;-68
2022/03/04 02:30:33;;;;;;;23.47;14.20;;;;;;;5.31;39.65;97481.75;5005046;28;20523;-69
2022/03/04 02:32:59;;;;;;;25.77;14.80;;;;;;;5.23;39.64;97468.50;5030780;28;20259;-71
2022/03/04 02:35:25;;;;;;;19.83;13.30;;;;;;;5.21;40.21;97465.16;5029504;28;20901;-69
2022/03/04 02:37:50;;;;;;;20.90;13.63;;;;;;;5.16;40.20;97464.69;5030668;28;20233;-70
2022/03/04 02:40:16;;;;;;;18.93;13.17;;;;;;;5.17;40.24;97461.13;5030479;28;20195;-70
2022/03/04 02:42:41;;;;;;;22.00;14.73;;;;;;;5.04;40.15;97475.00;5030818;28;20264;-68
2022/03/04 02:45:07;;;;;;;22.93;14.00;;;;;;;4.93;40.89;97467.16;5034449;28;20640;-69
2022/03/04 02:47:32;;;;;;;21.90;13.83;;;;;;;4.80;40.85;97474.19;5027009;28;20180;-69
2022/03/04 02:49:58;;;;;;;26.07;13.90;;;;;;;4.92;40.60;97468.94;5034956;28;20205;-71
2022/03/04 02:52:23;;;;;;;20.67;14.07;;;;;;;4.97;40.92;97463.41;5028376;28;20208;-71
2022/03/04 02:54:48;;;;;;;19.90;13.50;;;;;;;5.00;40.44;97462.34;5036462;28;20184;-71
2022/03/04 02:57:14;;;;;;;22.47;14.20;;;;;;;4.99;40.54;97466.75;5036871;28;20205;-71
2022/03/04 02:59:39;;;;;;;20.23;13.43;;;;;;;4.94;40.74;97463.63;5035502;28;20199;-71
2022/03/04 03:02:05;;;;;;;20.80;14.60;;;;;;;4.87;40.50;97462.44;5035744;28;20330;-69
2022/03/04 03:04:30;;;;;;;20.43;13.60;;;;;;;4.86;40.49;97465.97;5034096;28;20185;-69
2022/03/04 03:06:57;;;;;;;19.43;13.63;;;;;;;4.84;40.81;97465.25;5034144;28;20264;-69
2022/03/04 03:09:23;;;;;;;21.93;13.67;;;;;;;4.83;41.07;97461.81;5034386;28;20296;-69
2022/03/04 03:11:48;;;;;;;23.37;13.50;;;;;;;4.86;40.88;97464.19;5017104;28;20526;-70
2022/03/04 03:14:14;;;;;;;22.50;14.90;;;;;;;4.83;41.14;97460.97;5034090;28;20259;-70
2022/03/04 03:16:39;;;;;;;24.37;14.27;;;;;;;4.78;41.16;97469.09;5034253;28;20203;-68
2022/03/04 03:19:08;;;;;;;21.40;14.30;;;;;;;4.65;41.44;97463.97;5033834;28;20193;-69
2022/03/04 03:21:33;;;;;;;25.10;14.33;;;;;;;4.64;41.21;97470.09;5034352;28;20188;-69
2022/03/04 03:23:59;;;;;;;22.33;13.60;;;;;;;4.64;41.37;97467.50;5034262;28;20423;-70
2022/03/04 03:26:24;;;;;;;28.23;13.80;;;;;;;4.68;41.11;97468.91;5034285;28;20188;-71
2022/03/04 03:28:50;;;;;;;23.53;14.30;;;;;;;4.69;41.29;97464.56;5036012;28;20177;-71
2022/03/04 03:31:15;;;;;;;23.83;14.40;;;;;;;4.74;40.87;97463.31;5035696;28;20534;-70
2022/03/04 03:33:43;;;;;;;21.13;13.90;;;;;;;4.76;41.07;97471.81;5035780;28;20185;-71
2022/03/04 03:36:08;;;;;;;21.57;14.80;;;;;;;4.73;41.59;97463.41;5035371;28;20211;-70
2022/03/04 03:38:34;;;;;;;28.77;13.80;;;;;;;4.65;41.22;97463.13;5018039;28;20417;-69
2022/03/04 03:40:59;;;;;;;21.97;14.07;;;;;;;4.26;41.64;97474.41;5035760;28;20197;-70
2022/03/04 03:43:25;;;;;;;21.40;14.17;;;;;;;4.41;42.15;97472.50;5041060;28;20203;-71
2022/03/04 03:45:50;;;;;;;22.30;14.10;;;;;;;4.45;42.29;97475.75;5044216;28;20237;-71
2022/03/04 03:48:16;;;;;;;23.73;15.17;;;;;;;4.48;41.39;97472.91;5026774;28;20204;-70
2022/03/04 03:50:41;;;;;;;22.20;14.70;;;;;;;4.56;42.00;97470.63;5044191;28;20433;-71
2022/03/04 03:53:08;;;;;;;21.47;14.37;;;;;;;4.49;41.80;97482.38;5040280;28;20191;-70
2022/03/04 03:55:34;;;;;;;22.40;14.43;;;;;;;4.49;41.98;97486.75;5035500;28;20248;-70
2022/03/04 03:57:59;;;;;;;24.03;13.50;;;;;;;4.52;41.84;97489.13;5035743;28;20521;-70
2022/03/04 04:00:25;;;;;;;23.90;14.30;;;;;;;4.48;41.55;97490.28;5035043;28;20964;-70
2022/03/04 04:02:51;;;;;;;22.30;14.50;;;;;;;4.42;41.75;97494.13;5000534;28;20215;-70
2022/03/04 04:05:16;;;;;;;23.57;13.93;;;;;;;4.42;41.46;97494.13;5033740;28;20447;-70
2022/03/04 04:07:42;;;;;;;22.70;14.60;;;;;;;4.44;42.17;97497.44;5034183;28;20188;-71
2022/03/04 04:10:08;;;;;;;22.13;14.30;;;;;;;4.43;42.14;97501.78;5033922;28;20295;-70
2022/03/04 04:12:34;;;;;;;22.03;15.40;;;;;;;4.42;41.80;97500.13;5034422;28;20183;-70
2022/03/04 04:14:59;;;;;;;25.70;14.73;;;;;;;4.32;42.12;97501.72;5015671;28;20853;-70
2022/03/04 04:17:25;;;;;;;21.63;14.70;;;;;;;4.22;42.04;97505.88;5032807;28;20203;-71
2022/03/04 04:19:50;;;;;;;20.60;14.47;;;;;;;4.29;41.69;97494.97;5032947;28;20192;-71
2022/03/04 04:22:16;;;;;;;30.60;15.00;;;;;;;4.34;42.08;97501.63;5014950;28;20177;-71
2022/03/04 04:24:41;;;;;;;22.43;15.03;;;;;;;4.30;42.01;97500.97;5035585;28;20207;-70
2022/03/04 04:27:07;;;;;;;22.83;14.87;;;;;;;4.33;41.72;97505.97;5033530;28;20179;-71
2022/03/04 04:29:32;;;;;;;25.00;15.83;;;;;;;4.28;42.20;97495.91;5033258;28;20250;-72
2022/03/04 04:31:58;;;;;;;22.87;15.50;;;;;;;4.25;41.53;97495.28;5033241;28;20656;-72
2022/03/04 04:34:23;;;;;;;26.27;16.13;;;;;;;4.24;42.30;97504.00;5032578;28;20199;-72
2022/03/04 04:36:49;;;;;;;26.67;14.33;;;;;;;4.25;41.88;97498.69;5031884;28;20231;-72
2022/03/04 04:39:14;;;;;;;25.67;15.60;;;;;;;4.16;42.16;97504.53;5032509;28;20238;-72
2022/03/04 04:41:40;;;;;;;27.80;15.20;;;;;;;4.18;41.99;97507.84;5032865;28;20196;-72
2022/03/04 04:44:05;;;;;;;26.20;15.90;;;;;;;4.16;42.78;97507.13;5032177;28;20185;-72
2022/03/04 04:46:31;;;;;;;26.40;16.40;;;;;;;4.12;42.25;97509.09;5032198;28;20592;-72
2022/03/04 04:48:56;;;;;;;31.03;16.47;;;;;;;4.18;42.16;97518.22;5032594;28;20680;-72
2022/03/04 04:51:22;;;;;;;29.20;15.70;;;;;;;4.17;42.42;97511.38;5032419;28;20192;-72
2022/03/04 04:53:47;;;;;;;23.80;14.70;;;;;;;4.13;42.15;97502.97;5020483;28;20211;-71
2022/03/04 04:56:13;;;;;;;23.73;16.33;;;;;;;4.07;42.57;97512.94;5031059;28;20211;-71
2022/03/04 04:58:38;;;;;;;23.90;15.00;;;;;;;4.07;42.50;97507.75;5032340;28;20718;-71
2022/03/04 05:01:04;;;;;;;22.70;14.60;;;;;;;4.05;42.09;97510.44;5032839;28;20183;-71
2022/03/04 05:03:29;;;;;;;29.80;15.57;;;;;;;4.02;41.83;97518.44;5032564;28;20239;-71
2022/03/04 05:05:56;;;;;;;24.17;15.50;;;;;;;4.01;42.29;97519.38;5032597;28;20644;-71
2022/03/04 05:08:21;;;;;;;24.00;15.30;;;;;;;3.99;42.39;97523.84;5033339;28;20184;-71
2022/03/04 05:10:47;;;;;;;31.40;15.03;;;;;;;3.99;42.61;97524.66;5031504;28;21042;-71
2022/03/04 05:13:13;;;;;;;23.73;14.77;;;;;;;3.96;42.94;97531.81;5032475;28;20492;-70
2022/03/04 05:15:39;;;;;;;28.40;14.70;;;;;;;3.90;42.47;97534.84;5032743;28;20215;-70
2022/03/04 05:18:05;;;;;;;25.27;15.30;;;;;;;3.94;42.54;97536.28;5032901;28;20952;-72
2022/03/04 05:20:30;;;;;;;26.17;16.23;;;;;;;3.88;42.68;97534.91;5033074;28;20208;-73
2022/03/04 05:22:55;;;;;;;25.80;15.93;;;;;;;3.87;42.57;97535.03;5035812;28;20219;-72
2022/03/04 05:25:21;;;;;;;26.47;15.47;;;;;;;3.87;42.76;97535.03;5035947;28;20188;-72
2022/03/04 05:27:46;;;;;;;24.07;14.67;;;;;;;3.86;42.84;97538.56;5034687;28;20635;-72
2022/03/04 05:30:12;;;;;;;26.87;14.83;;;;;;;3.82;42.21;97536.16;5036669;28;20209;-72
2022/03/04 05:32:38;;;;;;;23.87;15.20;;;;;;;3.84;42.89;97538.66;5021844;28;20267;-71
2022/03/04 05:35:04;;;;;;;31.07;16.83;;;;;;;3.75;42.91;97532.31;5037516;28;20238;-72
2022/03/04 05:37:30;;;;;;;23.20;14.17;;;;;;;3.75;42.53;97537.50;5018346;28;20360;-72
2022/03/04 05:39:55;;;;;;;27.07;15.00;;;;;;;3.74;42.76;97537.59;5034282;28;20435;-71
2022/03/04 05:42:20;;;;;;;24.00;14.47;;;;;;;3.69;42.87;97532.72;5033722;28;20188;-71
2022/03/04 05:44:46;;;;;;;23.73;15.20;;;;;;;3.71;43.19;97541.22;5034548;28;20680;-71
2022/03/04 05:47:12;;;;;;;23.57;15.93;;;;;;;3.69;43.23;97535.31;5016610;28;20550;-71
2022/03/04 05:49:37;;;;;;;27.33;15.40;;;;;;;3.67;42.71;97545.78;5038117;28;20209;-71
2022/03/04 05:52:04;;;;;;;23.23;14.90;;;;;;;3.64;42.98;97537.38;5035889;28;20237;-72
2022/03/04 05:54:30;;;;;;;26.87;15.53;;;;;;;3.64;42.94;97539.97;5038679;28;20431;-72
2022/03/04 05:56:56;;;;;;;28.10;16.43;;;;;;;3.63;43.06;97543.50;5044077;28;20488;-72
2022/03/04 05:59:21;;;;;;;22.23;14.90;;;;;;;3.57;42.81;97541.28;5044679;28;20214;-73
2022/03/04 06:01:47;;;;;;;31.43;15.50;;;;;;;3.58;43.39;97551.59;5042043;28;20462;-73
2022/03/04 06:04:12;;;;;;;24.53;15.90;;;;;;;3.60;43.08;97554.06;5042556;28;20226;-72
2022/03/04 06:06:38;;;;;;;22.93;15.33;;;;;;;3.53;42.74;97553.63;5042711;28;20182;-72
2022/03/04 06:09:03;;;;;;;23.83;15.80;;;;;;;3.53;43.11;97557.03;5043574;28;20219;-72
2022/03/04 06:11:29;;;;;;;26.30;15.60;;;;;;;3.52;43.00;97552.81;5047870;28;20197;-72
2022/03/04 06:13:54;;;;;;;28.30;16.70;;;;;;;3.53;42.91;97559.63;5047086;28;20186;-72
2022/03/04 06:16:20;;;;;;;33.40;16.77;;;;;;;3.50;42.71;97565.03;5045030;28;20203;-71
2022/03/04 06:18:46;;;;;;;28.83;16.67;;;;;;;3.50;43.22;97566.78;5032277;28;20181;-71
2022/03/04 06:21:11;;;;;;;27.40;16.27;;;;;;;3.49;43.46;97563.38;5030631;28;20230;-71
2022/03/04 06:23:37;;;;;;;26.47;15.77;;;;;;;3.52;43.85;97570.09;5030636;28;20428;-71
2022/03/04 06:26:03;;;;;;;22.40;15.50;;;;;;;3.54;43.50;97574.25;5030669;28;20174;-71
2022/03/04 06:28:28;;;;;;;27.90;16.13;;;;;;;3.53;43.37;97572.59;5031029;28;20211;-71
2022/03/04 06:30:54;;;;;;;27.00;15.53;;;;;;;3.69;43.31;97576.78;5031378;28;20203;-71
2022/03/04 06:33:37;;;;;;;26.00;15.10;;;;;;;3.94;43.06;97572.56;5031311;28;20237;-71
2022/03/04 06:36:06;;;;;;;26.13;15.90;;;;;;;4.22;42.70;97584.53;5027517;28;20204;-71
2022/03/04 06:38:34;;;;;;;30.43;16.80;;;;;;;4.35;42.46;97576.75;5012870;28;20415;-70
2022/03/04 06:40:59;;;;;;;28.30;15.50;;;;;;;4.42;42.24;97588.38;5030839;28;20443;-70
2022/03/04 06:43:25;;;;;;;28.23;16.57;;;;;;;4.61;41.98;97581.94;5031375;28;20492;-71
2022/03/04 06:45:50;;;;;;;32.50;16.37;;;;;;;4.78;41.79;97585.97;5031407;28;20654;-70
2022/03/04 06:48:21;;;;;;;25.33;14.70;;;;;;;4.89;41.38;97580.03;5030604;28;20401;-71
2022/03/04 06:50:50;;;;;;;30.23;16.30;;;;;;;5.00;41.44;97587.91;5030260;28;20204;-70
2022/03/04 06:53:16;;;;;;;35.67;18.67;;;;;;;5.18;40.78;97584.94;5028692;28;20415;-72
2022/03/04 06:55:41;;;;;;;26.67;16.63;;;;;;;5.29;41.37;97587.63;5030285;28;20498;-71
2022/03/04 06:58:07;;;;;;;27.47;17.20;;;;;;;5.36;41.08;97587.97;5028285;28;20181;-72
2022/03/04 07:00:32;;;;;;;25.70;16.23;;;;;;;5.50;40.83;97585.22;5006265;28;20208;-72
2022/03/04 07:02:58;;;;;;;25.33;16.70;;;;;;;5.58;41.46;97587.25;5029539;28;20234;-72
2022/03/04 07:05:24;;;;;;;26.37;17.50;;;;;;;5.68;40.71;97588.25;5030571;28;20259;-72
2022/03/04 07:07:50;;;;;;;26.07;16.60;;;;;;;5.74;41.38;97597.38;5013400;28;20271;-70
2022/03/04 07:10:15;;;;;;;31.20;16.70;;;;;;;5.74;41.33;97594.78;5022917;28;20458;-72
2022/03/04 07:12:41;;;;;;;27.80;17.30;;;;;;;5.78;40.78;97603.19;5030808;28;20473;-70
2022/03/04 07:15:07;;;;;;;32.70;18.40;;;;;;;5.82;40.44;97609.81;5030271;28;20190;-69
2022/03/04 07:17:33;;;;;;;30.77;17.27;;;;;;;5.77;40.51;97604.16;5021834;28;20297;-72
2022/03/04 07:19:58;;;;;;;28.67;17.50;;;;;;;5.72;40.89;97608.84;5031208;28;21065;-71
2022/03/04 07:22:24;;;;;;;28.60;17.43;;;;;;;5.71;41.11;97618.44;5030318;28;20632;-72
2022/03/04 07:24:49;;;;;;;29.50;18.27;;;;;;;5.77;40.36;97614.56;5030568;28;20182;-69
2022/03/04 07:27:15;;;;;;;30.53;18.33;;;;;;;5.68;40.89;97616.84;5031059;28;20277;-70
2022/03/04 07:29:40;;;;;;;34.67;18.33;;;;;;;5.75;40.58;97619.03;5031805;28;20658;-72
2022/03/04 07:32:06;;;;;;;37.63;21.10;;;;;;;5.86;40.67;97626.06;5034634;28;20264;-72
2022/03/04 07:34:31;;;;;;;29.60;18.53;;;;;;;5.87;40.75;97623.34;5033012;28;20238;-72
2022/03/04 07:36:57;;;;;;;29.93;17.97;;;;;;;5.94;40.91;97618.50;5033697;28;20199;-72
2022/03/04 07:39:22;;;;;;;29.53;17.60;;;;;;;5.89;41.31;97623.22;5033397;28;20208;-72
2022/03/04 07:41:48;;;;;;;30.70;18.70;;;;;;;5.83;41.21;97621.88;5033656;28;20195;-71
2022/03/04 07:44:15;;;;;;;27.80;18.07;;;;;;;5.87;40.83;97630.28;5029618;28;20559;-70
2022/03/04 07:46:40;;;;;;;30.90;18.80;;;;;;;5.80;41.02;97630.75;5031317;28;20180;-71
2022/03/04 07:49:06;;;;;;;32.03;18.20;;;;;;;5.66;40.72;97621.38;5032561;28;20942;-72
2022/03/04 07:51:31;;;;;;;30.33;18.33;;;;;;;5.73;40.22;97632.16;5032186;28;20191;-71
2022/03/04 07:53:57;;;;;;;30.30;17.43;;;;;;;5.74;39.95;97632.97;5033345;28;20190;-72
2022/03/04 07:56:22;;;;;;;33.40;19.30;;;;;;;5.92;39.67;97626.41;5030556;28;20216;-71
2022/03/04 07:58:48;;;;;;;30.20;17.23;;;;;;;6.03;39.57;97632.66;5029873;28;20240;-72
2022/03/04 08:01:13;;;;;;;28.97;17.93;;;;;;;6.15;38.71;97631.75;5033239;28;20274;-70
2022/03/04 08:03:39;;;;;;;38.43;17.80;;;;;;;6.23;38.86;97629.41;5016045;28;20212;-73
2022/03/04 08:06:04;;;;;;;28.60;17.90;;;;;;;6.23;38.46;97625.97;5033819;28;20182;-70
2022/03/04 08:08:30;;;;;;;33.27;18.60;;;;;;;6.22;38.09;97630.34;5034227;28;20179;-71
2022/03/04 08:10:55;;;;;;;29.17;17.67;;;;;;;6.38;38.01;97630.00;5033278;28;20721;-73
2022/03/04 08:13:21;;;;;;;29.50;18.67;;;;;;;6.63;38.24;97630.75;5031255;28;20626;-70
2022/03/04 08:15:47;;;;;;;28.47;18.17;;;;;;;6.74;37.36;97635.16;5030598;28;20260;-71
2022/03/04 08:18:12;;;;;;;29.77;17.90;;;;;;;6.87;37.05;97635.03;5031137;28;20185;-70
2022/03/04 08:20:38;;;;;;;29.57;18.27;;;;;;;7.07;36.73;97636.09;5031113;28;20483;-72
2022/03/04 08:23:04;;;;;;;37.30;18.43;;;;;;;7.35;36.98;97632.16;5031118;28;20180;-72
2022/03/04 08:25:29;;;;;;;37.33;20.30;;;;;;;7.71;35.88;97631.94;5030758;28;20195;-72
2022/03/04 08:27:55;;;;;;;30.00;18.93;;;;;;;7.93;34.55;97630.22;5031696;28;20221;-72
2022/03/04 08:30:20;;;;;;;30.73;19.17;;;;;;;8.15;35.48;97626.66;5030774;28;20206;-72
2022/03/04 08:32:46;;;;;;;33.00;19.47;;;;;;;8.42;34.58;97628.78;4992231;28;20183;-72
2022/03/04 08:35:11;;;;;;;29.47;18.23;;;;;;;8.83;34.26;97634.09;5032080;28;20191;-71
2022/03/04 08:37:37;;;;;;;27.37;18.73;;;;;;;9.05;33.15;97633.09;5032760;28;20204;-71
2022/03/04 08:40:05;;;;;;;28.97;19.53;;;;;;;9.42;32.78;97636.09;5014624;28;20298;-73
2022/03/04 08:42:30;;;;;;;32.83;19.90;;;;;;;9.74;32.80;97628.00;5031602;28;20453;-72
2022/03/04 08:44:56;;;;;;;36.30;19.37;;;;;;;9.99;31.18;97631.06;5032769;28;20919;-72
2022/03/04 08:47:22;;;;;;;30.00;19.60;;;;;;;10.10;31.13;97625.66;5032252;28;20177;-72
2022/03/04 08:49:48;;;;;;;41.93;19.27;;;;;;;10.27;31.02;97626.75;5032141;28;20205;-72
2022/03/04 08:52:13;;;;;;;29.10;18.87;;;;;;;10.41;30.57;97624.69;5032404;28;20380;-72
2022/03/04 08:54:39;;;;;;;36.17;20.13;;;;;;;10.59;30.21;97627.41;5031666;28;20429;-71
2022/03/04 08:57:04;;;;;;;32.70;19.40;;;;;;;10.80;29.85;97637.69;5032291;28;20644;-72
2022/03/04 08:59:30;;;;;;;30.60;19.63;;;;;;;10.95;29.77;97635.44;5032190;28;20684;-72
2022/03/04 09:01:56;;;;;;;38.40;19.93;;;;;;;11.10;29.55;97641.00;5031851;28;20186;-72
2022/03/04 09:04:22;;;;;;;33.57;20.00;;;;;;;11.34;29.82;97627.38;5031981;28;20191;-71
2022/03/04 09:06:48;;;;;;;30.20;20.03;;;;;;;11.80;29.87;97627.34;5031450;28;20172;-71
2022/03/04 09:09:14;;;;;;;35.93;20.67;;;;;;;12.24;28.36;97634.50;5013697;28;20545;-72
2022/03/04 09:11:40;;;;;;;33.43;20.50;;;;;;;12.66;28.54;97632.97;5031722;28;20617;-72
2022/03/04 09:14:06;;;;;;;33.40;21.60;;;;;;;12.98;27.66;97628.03;5031782;28;20188;-72
2022/03/04 09:16:31;;;;;;;31.10;20.87;;;;;;;13.12;27.48;97624.00;5031594;28;20235;-72
2022/03/04 09:18:57;;;;;;;29.73;20.50;;;;;;;13.35;26.87;97627.72;5031443;28;21170;-72
2022/03/04 09:21:22;;;;;;;31.60;21.33;;;;;;;13.43;26.69;97624.28;5031540;28;20255;-72
2022/03/04 09:23:48;;;;;;;31.43;21.47;;;;;;;13.71;26.63;97625.84;5031352;28;20243;-72
2022/03/04 09:26:14;;;;;;;43.77;21.10;;;;;;;13.78;26.52;97616.31;5031472;28;20176;-71
2022/03/04 09:28:40;;;;;;;37.60;22.60;;;;;;;14.19;25.63;97613.69;5027207;28;20183;-72
2022/03/04 09:31:05;;;;;;;30.90;19.63;;;;;;;14.52;25.52;97613.66;5028216;28;20424;-72
2022/03/04 09:33:31;;;;;;;30.47;20.37;;;;;;;14.73;25.08;97620.25;5031444;28;20179;-72
2022/03/04 09:35:56;;;;;;;31.47;21.70;;;;;;;14.89;24.57;97620.19;5030753;28;20271;-72
2022/03/04 09:38:22;;;;;;;30.77;21.37;;;;;;;14.80;23.86;97621.22;5031210;28;20252;-71
2022/03/04 09:40:49;;;;;;;33.13;20.73;;;;;;;14.87;24.60;97624.81;5031371;28;20238;-72
2022/03/04 09:43:18;;;;;;;30.80;20.10;;;;;;;14.96;24.00;97624.81;5023423;28;20184;-71
2022/03/04 09:45:47;;;;;;;31.00;20.10;;;;;;;15.17;23.82;97625.06;5031198;28;20422;-72
2022/03/04 09:48:12;;;;;;;28.90;21.10;;;;;;;15.11;23.10;97628.41;5031016;28;20522;-71
2022/03/04 09:50:38;;;;;;;27.80;19.93;;;;;;;15.40;23.23;97631.41;5031235;28;20521;-72
2022/03/04 09:53:09;;;;;;;34.83;21.77;;;;;;;15.54;23.36;97632.47;5031097;28;20191;-72
2022/03/04 09:55:36;;;;;;;36.57;22.77;;;;;;;15.50;22.71;97627.53;5023016;28;20775;-71
2022/03/04 09:58:02;;;;;;;30.80;21.00;;;;;;;15.64;22.40;97628.63;5030856;28;20462;-71
2022/03/04 10:00:28;;;;;;;34.33;20.60;;;;;;;15.81;22.49;97629.34;5030962;28;20458;-73
2022/03/04 10:02:53;;;;;;;32.63;20.97;;;;;;;15.77;23.18;97632.50;5031075;28;20436;-71
2022/03/04 10:05:19;;;;;;;31.63;21.00;;;;;;;16.00;21.44;97623.78;5030205;28;20195;-72
2022/03/04 10:07:47;;;;;;;32.00;20.40;;;;;;;15.62;20.27;97625.31;5036488;28;20583;-72
2022/03/04 10:10:17;;;;;;;31.20;19.93;;;;;;;15.70;21.40;97637.66;5030751;28;20219;-72
2022/03/04 10:12:55;;;;;;;28.07;19.87;;;;;;;15.52;20.77;97636.09;5012959;28;20495;-72
2022/03/04 10:15:21;;;;;;;28.27;19.27;;;;;;;15.61;19.99;97628.16;5012889;28;20441;-72
2022/03/04 10:17:58;;;;;;;29.33;19.00;;;;;;;15.28;19.59;97629.16;5012850;28;20456;-72
2022/03/04 10:20:39;;;;;;;26.10;18.27;;;;;;;15.39;19.36;97640.31;5030700;28;20473;-71
2022/03/04 10:23:19;;;;;;;32.27;19.60;;;;;;;15.09;19.91;97633.00;5030195;28;20496;-72
2022/03/04 10:25:47;;;;;;;27.07;20.03;;;;;;;14.91;20.33;97630.59;5024229;28;20475;-71
2022/03/04 10:28:13;;;;;;;32.60;19.80;;;;;;;14.77;20.17;97628.66;5030612;28;20508;-72
2022/03/04 10:30:44;;;;;;;31.80;20.33;;;;;;;15.17;20.22;97635.63;5012555;28;20893;-71
2022/03/04 10:33:12;;;;;;;29.23;18.93;;;;;;;15.11;19.72;97630.19;5030277;28;20179;-72
2022/03/04 10:35:38;;;;;;;29.37;19.33;;;;;;;15.30;19.60;97626.31;5030699;28;20507;-71
2022/03/04 10:38:04;;;;;;;27.30;19.00;;;;;;;15.31;19.31;97623.50;5030696;28;21253;-71
2022/03/04 10:40:42;;;;;;;24.70;17.27;;;;;;;15.59;19.23;97624.88;5030483;28;20443;-72
2022/03/04 10:43:09;;;;;;;27.10;18.67;;;;;;;15.82;19.28;97614.28;5030158;28;20430;-72
2022/03/04 10:45:37;;;;;;;28.60;18.53;;;;;;;15.90;19.02;97621.38;5030426;28;20461;-71
2022/03/04 10:48:09;;;;;;;26.60;18.30;;;;;;;15.74;19.03;97623.13;5012874;28;20422;-71
2022/03/04 10:50:46;;;;;;;33.27;19.97;;;;;;;15.74;19.27;97614.34;5029665;28;20541;-72
2022/03/04 10:53:14;;;;;;;27.33;18.80;;;;;;;15.94;19.88;97612.09;5030309;28;20419;-72
2022/03/04 10:56:00;;;;;;;29.73;19.50;;;;;;;15.99;19.26;97611.56;5030615;28;20795;-72
2022/03/04 10:58:30;;;;;;;27.80;19.43;;;;;;;15.72;19.25;97617.19;5030168;28;20503;-71
2022/03/04 11:01:09;;;;;;;26.27;19.80;;;;;;;15.71;19.25;97612.91;5030748;28;20450;-72
2022/03/04 11:03:36;;;;;;;34.93;19.80;;;;;;;15.54;19.49;97614.81;5023050;28;20425;-72
2022/03/04 11:06:07;;;;;;;28.43;19.10;;;;;;;15.90;19.30;97605.53;5033849;28;20923;-71
2022/03/04 11:08:32;;;;;;;26.97;19.30;;;;;;;15.82;19.04;97604.56;5034742;28;20430;-73
2022/03/04 11:10:59;;;;;;;27.03;18.40;;;;;;;15.69;19.31;97606.16;5034383;28;20854;-72
2022/03/04 11:13:25;;;;;;;27.80;19.07;;;;;;;16.30;19.65;97603.53;5016477;28;20184;-72
2022/03/04 11:15:52;;;;;;;31.40;19.53;;;;;;;16.56;18.74;97595.22;5033784;28;20853;-72
2022/03/04 11:18:19;;;;;;;28.37;19.50;;;;;;;17.00;20.00;97596.25;5025546;28;20427;-72
2022/03/04 11:20:50;;;;;;;28.93;18.70;;;;;;;17.16;18.53;97594.38;5034132;28;20888;-72